Time;durP1;ratioP1;P1;durP2;ratioP2;P2;SDS_P1;SDS_P2;PMS_P1;PMS_P2;Temp;Humidity;BMP_temperature;BMP_pressure;BME280_temperature;BME280_humidity;BME280_pressure;Samples;Min_cycle;Max_cycle;Signal;HPM_P1;HPM_P2
2021/11/07 00:06:48;;;;;;;7.27;3.90;;;10.40;99.90;;;;;;5076528;28;19937;-85
2021/11/07 00:09:37;;;;;;;9.83;4.23;;;10.40;99.90;;;;;;5057284;28;20064;-86
2021/11/07 00:12:13;;;;;;;8.00;3.88;;;10.40;99.90;;;;;;5058448;28;20428;-85
2021/11/07 00:14:40;;;;;;;11.67;5.00;;;10.30;99.90;;;;;;5076403;28;20279;-85
2021/11/07 00:17:06;;;;;;;14.13;6.50;;;10.40;99.90;;;;;;5058562;28;20169;-86
2021/11/07 00:19:36;;;;;;;15.17;7.20;;;10.30;99.90;;;;;;5057613;28;20028;-86
2021/11/07 00:22:09;;;;;;;14.17;6.67;;;10.20;99.90;;;;;;5058177;28;20025;-85
2021/11/07 00:27:19;;;;;;;9.53;5.20;;;10.30;99.90;;;;;;5076139;28;20033;-85
2021/11/07 00:30:15;;;;;;;11.95;5.30;;;10.20;99.90;;;;;;5040857;28;20081;-85
2021/11/07 00:33:09;;;;;;;6.77;4.10;;;10.20;99.90;;;;;;5074943;28;20115;-86
2021/11/07 00:38:07;;;;;;;9.50;4.93;;;10.10;99.90;;;;;;5075687;28;20036;-85
2021/11/07 00:43:16;;;;;;;14.90;5.27;;;10.00;99.90;;;;;;5075801;28;20033;-84
2021/11/07 00:50:47;;;;;;;8.97;5.60;;;9.70;99.90;;;;;;5075042;28;20029;-84
2021/11/07 01:01:31;;;;;;;16.73;8.80;;;9.70;99.90;;;;;;5037282;28;20058;-84
2021/11/07 01:04:00;;;;;;;16.40;9.77;;;9.70;99.90;;;;;;5058333;28;20485;-83
2021/11/07 01:06:29;;;;;;;18.45;10.63;;;9.70;99.90;;;;;;5058157;28;20516;-85
2021/11/07 01:08:55;;;;;;;;;;;9.60;99.90;;;;;;5058091;28;20036;-84
2021/11/07 01:11:21;;;;;;;20.00;10.13;;;9.60;99.90;;;;;;5058048;28;19943;-84
2021/11/07 01:13:47;;;;;;;16.17;9.87;;;9.70;99.90;;;;;;5057596;28;20095;-84
2021/11/07 01:16:13;;;;;;;20.63;9.67;;;9.60;99.90;;;;;;5059572;23;20515;-86
2021/11/07 01:18:39;;;;;;;30.00;10.57;;;9.60;99.90;;;;;;5071986;28;20495;-85
2021/11/07 01:21:05;;;;;;;17.47;9.23;;;9.60;99.90;;;;;;5054773;28;20032;-86
2021/11/07 01:23:48;;;;;;;17.37;8.57;;;9.70;99.90;;;;;;5072027;28;20024;-86
2021/11/07 01:26:25;;;;;;;14.27;7.57;;;9.70;99.90;;;;;;5071767;28;20036;-85
2021/11/07 01:28:58;;;;;;;16.07;7.83;;;9.70;99.90;;;;;;5038407;28;20025;-86
2021/11/07 01:31:25;;;;;;;15.90;7.70;;;9.70;99.90;;;;;;5054899;28;20514;-86
2021/11/07 01:33:53;;;;;;;15.97;6.93;;;9.60;99.90;;;;;;5038202;28;20029;-86
2021/11/07 01:39:22;;;;;;;10.93;6.13;;;9.60;99.90;;;;;;5021220;28;20036;-86
2021/11/07 01:44:34;;;;;;;12.47;6.30;;;9.60;99.90;;;;;;5071344;28;20079;-86
2021/11/07 01:46:59;;;;;;;15.93;6.80;;;9.70;99.90;;;;;;5037684;28;20032;-86
2021/11/07 01:49:33;;;;;;;11.47;6.43;;;9.60;99.90;;;;;;5072094;28;20032;-86
2021/11/07 01:52:01;;;;;;;10.63;5.73;;;9.70;99.90;;;;;;5054651;28;20067;-86
2021/11/07 01:54:33;;;;;;;10.50;6.20;;;9.60;99.90;;;;;;5054741;28;20029;-86
2021/11/07 01:56:59;;;;;;;12.20;6.37;;;9.60;99.90;;;;;;5071068;28;20154;-86
2021/11/07 01:59:25;;;;;;;8.57;5.23;;;9.70;99.90;;;;;;5054172;28;20099;-87
2021/11/07 02:01:57;;;;;;;11.17;5.23;;;9.70;99.90;;;;;;5037719;28;20028;-87
2021/11/07 02:04:22;;;;;;;8.10;5.57;;;9.70;99.90;;;;;;5054185;28;20058;-86
2021/11/07 02:06:49;;;;;;;11.50;5.17;;;9.70;99.90;;;;;;5037831;28;20419;-86
2021/11/07 02:09:15;;;;;;;8.67;5.50;;;9.70;99.90;;;;;;5054093;28;20024;-86
2021/11/07 02:11:41;;;;;;;8.43;5.13;;;9.60;99.90;;;;;;5054169;28;20025;-87
2021/11/07 02:14:07;;;;;;;8.87;4.57;;;9.60;99.90;;;;;;5054171;28;20025;-86
2021/11/07 02:16:33;;;;;;;8.73;5.37;;;9.60;99.90;;;;;;5054080;28;20103;-86
2021/11/07 02:18:59;;;;;;;6.87;4.50;;;9.70;99.90;;;;;;5036952;28;20093;-86
2021/11/07 02:21:25;;;;;;;8.60;4.27;;;9.70;99.90;;;;;;5037629;28;20028;-87
2021/11/07 02:23:51;;;;;;;6.70;4.70;;;9.70;99.90;;;;;;5054041;28;20043;-86
2021/11/07 02:26:17;;;;;;;7.03;4.90;;;9.70;99.90;;;;;;5053707;28;20102;-86
2021/11/07 02:28:46;;;;;;;7.60;4.57;;;9.70;99.90;;;;;;5054277;28;20028;-86
2021/11/07 02:31:16;;;;;;;8.37;4.93;;;9.70;99.90;;;;;;5053910;28;20036;-86
2021/11/07 02:33:42;;;;;;;7.63;4.10;;;9.70;99.90;;;;;;5054439;28;20377;-86
2021/11/07 02:36:11;;;;;;;8.60;4.33;;;9.70;99.90;;;;;;5053953;28;20039;-86
2021/11/07 02:38:39;;;;;;;8.25;4.47;;;9.70;99.90;;;;;;5054076;28;20087;-86
2021/11/07 02:41:07;;;;;;;10.00;4.63;;;9.70;99.90;;;;;;5053560;28;20451;-86
2021/11/07 02:43:41;;;;;;;9.03;4.40;;;9.70;99.90;;;;;;5037418;28;20025;-86
2021/11/07 02:46:08;;;;;;;7.60;4.33;;;9.70;99.90;;;;;;5053800;28;20039;-86
2021/11/07 02:48:33;;;;;;;7.80;4.97;;;9.70;99.90;;;;;;5070615;28;20412;-86
2021/11/07 02:50:59;;;;;;;8.13;4.70;;;9.70;99.90;;;;;;5053445;28;20033;-86
2021/11/07 02:53:25;;;;;;;7.23;4.10;;;9.60;99.90;;;;;;5037318;28;20025;-86
2021/11/07 02:55:51;;;;;;;7.70;4.60;;;9.60;99.90;;;;;;5037103;28;20572;-86
2021/11/07 02:58:17;;;;;;;5.90;4.33;;;9.70;99.90;;;;;;5037311;28;20034;-86
2021/11/07 03:00:45;;;;;;;8.10;5.03;;;9.70;99.90;;;;;;5073640;28;20020;-86
2021/11/07 03:03:11;;;;;;;8.70;4.90;;;9.70;99.90;;;;;;5057896;28;20116;-86
2021/11/07 03:05:37;;;;;;;7.57;4.67;;;9.80;99.90;;;;;;5075654;28;20111;-86
2021/11/07 03:08:03;;;;;;;10.50;5.83;;;9.80;99.90;;;;;;5074463;28;20028;-86
2021/11/07 03:10:31;;;;;;;10.60;6.10;;;9.80;99.90;;;;;;5057560;28;20564;-86
2021/11/07 03:13:12;;;;;;;11.67;6.90;;;9.80;99.90;;;;;;5041033;28;20388;-86
2021/11/07 03:15:42;;;;;;;8.97;5.63;;;9.80;99.90;;;;;;5040801;28;20034;-86
2021/11/07 03:18:12;;;;;;;9.33;5.30;;;9.80;99.90;;;;;;5057645;28;20116;-86
2021/11/07 03:20:39;;;;;;;6.77;4.70;;;9.80;99.90;;;;;;5057233;28;20025;-86
2021/11/07 03:23:05;;;;;;;7.03;4.20;;;9.90;99.90;;;;;;5057600;28;20027;-86
2021/11/07 03:25:31;;;;;;;6.87;4.00;;;9.90;99.90;;;;;;5056503;28;20392;-86
2021/11/07 03:27:58;;;;;;;9.43;4.60;;;9.90;99.90;;;;;;5056314;28;20079;-86
2021/11/07 03:32:56;;;;;;;6.97;4.35;;;9.90;99.90;;;;;;5073897;28;20396;-86
2021/11/07 03:35:22;;;;;;;8.98;4.43;;;9.80;99.90;;;;;;5040699;28;20492;-86
2021/11/07 03:37:56;;;;;;;8.60;4.40;;;9.90;99.90;;;;;;5040717;28;20058;-86
2021/11/07 03:40:24;;;;;;;8.00;4.60;;;9.90;99.90;;;;;;5040101;28;20028;-86
2021/11/07 03:42:50;;;;;;;8.32;4.78;;;9.90;99.90;;;;;;5056950;28;20043;-86
2021/11/07 03:45:17;;;;;;;8.90;4.87;;;9.90;99.90;;;;;;5040454;28;20386;-86
2021/11/07 03:47:42;;;;;;;7.30;5.23;;;9.90;99.90;;;;;;5040430;28;20035;-86
2021/11/07 03:50:09;;;;;;;9.07;5.80;;;9.90;99.90;;;;;;5040036;28;20025;-85
2021/11/07 03:52:34;;;;;;;8.53;5.00;;;9.90;99.90;;;;;;5056795;28;20551;-86
2021/11/07 03:55:00;;;;;;;9.77;5.60;;;10.00;99.90;;;;;;5040240;28;20052;-86
2021/11/07 03:57:26;;;;;;;9.70;5.23;;;10.00;99.90;;;;;;5056892;28;20061;-86
2021/11/07 03:59:52;;;;;;;9.13;5.13;;;10.00;99.90;;;;;;5039774;28;20029;-86
2021/11/07 04:02:19;;;;;;;7.83;4.80;;;10.00;99.90;;;;;;5056726;28;20036;-86
2021/11/07 04:04:45;;;;;;;6.10;4.33;;;10.00;99.90;;;;;;5056594;28;20106;-86
2021/11/07 04:07:11;;;;;;;6.77;4.53;;;10.10;99.90;;;;;;5073425;28;20028;-85
2021/11/07 04:09:36;;;;;;;8.07;4.70;;;10.10;99.90;;;;;;5039347;28;20072;-86
2021/11/07 04:12:02;;;;;;;9.20;5.23;;;10.10;99.90;;;;;;5056880;28;20030;-86
2021/11/07 04:14:33;;;;;;;8.93;5.10;;;10.10;99.90;;;;;;5039665;28;20062;-87
2021/11/07 04:17:04;;;;;;;9.50;4.87;;;10.10;99.90;;;;;;5039942;28;20150;-86
2021/11/07 04:19:29;;;;;;;6.70;4.33;;;10.10;99.90;;;;;;5039518;28;20064;-86
2021/11/07 04:22:00;;;;;;;8.37;4.77;;;10.10;99.90;;;;;;5039565;28;20025;-86
2021/11/07 04:24:26;;;;;;;11.87;5.23;;;10.10;99.90;;;;;;5056457;28;20433;-86
2021/11/07 04:26:52;;;;;;;9.37;5.27;;;10.00;99.90;;;;;;5056498;28;20104;-87
2021/11/07 04:29:18;;;;;;;7.17;4.90;;;10.00;99.90;;;;;;5055960;28;20125;-87
2021/11/07 04:31:44;;;;;;;8.03;4.53;;;10.10;99.90;;;;;;5039582;28;20033;-86
2021/11/07 04:34:09;;;;;;;9.43;5.27;;;10.10;99.90;;;;;;5039523;28;20032;-86
2021/11/07 04:36:35;;;;;;;6.87;4.53;;;10.20;99.90;;;;;;5056120;28;20028;-86
2021/11/07 04:39:01;;;;;;;9.23;5.00;;;10.10;99.90;;;;;;5055743;28;20591;-86
2021/11/07 04:41:27;;;;;;;9.60;5.07;;;10.10;99.90;;;;;;5039564;28;20039;-86
2021/11/07 04:43:53;;;;;;;7.27;5.30;;;10.10;99.90;;;;;;5039346;28;20077;-87
2021/11/07 04:46:19;;;;;;;7.63;5.10;;;10.10;99.90;;;;;;5039206;28;20036;-87
2021/11/07 04:48:47;;;;;;;8.77;5.10;;;10.10;99.90;;;;;;5056057;28;20051;-86
2021/11/07 04:51:13;;;;;;;7.80;5.10;;;10.20;99.90;;;;;;5039310;28;20037;-87
2021/11/07 04:53:39;;;;;;;6.30;4.90;;;10.20;99.90;;;;;;5072911;28;20029;-86
2021/11/07 04:56:06;;;;;;;9.47;5.57;;;10.20;99.90;;;;;;5073524;28;20468;-86
2021/11/07 04:58:32;;;;;;;10.77;5.80;;;10.20;99.90;;;;;;5045406;28;20090;-87
2021/11/07 05:00:58;;;;;;;8.37;5.63;;;10.20;99.90;;;;;;5064401;28;20075;-86
2021/11/07 05:03:24;;;;;;;9.00;5.90;;;10.20;99.90;;;;;;5043027;28;20054;-86
2021/11/07 05:05:50;;;;;;;10.20;6.13;;;10.20;99.90;;;;;;5056151;28;20059;-87
2021/11/07 05:08:16;;;;;;;9.20;6.10;;;10.20;99.90;;;;;;5040929;28;20115;-86
2021/11/07 05:10:43;;;;;;;10.03;6.40;;;10.20;99.90;;;;;;5038872;28;20459;-86
2021/11/07 05:13:10;;;;;;;10.20;6.60;;;10.10;99.90;;;;;;5038955;28;20029;-86
2021/11/07 05:15:36;;;;;;;9.63;6.10;;;10.20;99.90;;;;;;5039135;28;20036;-87
2021/11/07 05:18:02;;;;;;;8.63;6.13;;;10.20;99.90;;;;;;5038995;28;20032;-87
2021/11/07 05:20:29;;;;;;;11.73;6.77;;;10.30;99.90;;;;;;5055379;28;20024;-87
2021/11/07 05:22:55;;;;;;;11.60;6.83;;;10.20;99.90;;;;;;5055127;28;20055;-87
2021/11/07 05:25:21;;;;;;;12.83;8.43;;;10.20;99.90;;;;;;5045415;28;20108;-87
2021/11/07 05:27:47;;;;;;;9.77;7.67;;;10.20;99.90;;;;;;5050973;28;20429;-87
2021/11/07 05:30:15;;;;;;;13.67;8.13;;;10.20;99.90;;;;;;5051695;28;20028;-87
2021/11/07 05:32:41;;;;;;;11.70;7.97;;;10.30;99.90;;;;;;5082810;28;20031;-87
2021/11/07 05:35:09;;;;;;;12.17;8.40;;;10.30;99.90;;;;;;5050633;28;20119;-88
2021/11/07 05:37:35;;;;;;;9.77;7.20;;;10.20;99.90;;;;;;5046218;28;20044;-87
2021/11/07 05:40:01;;;;;;;13.77;8.37;;;10.20;99.90;;;;;;5073477;28;20032;-87
2021/11/07 05:42:26;;;;;;;12.17;8.17;;;10.20;99.90;;;;;;5054980;28;20039;-87
2021/11/07 05:44:52;;;;;;;14.40;8.00;;;10.20;99.90;;;;;;5038141;28;20508;-87
2021/11/07 05:47:18;;;;;;;12.53;7.77;;;10.10;99.90;;;;;;5054942;28;20032;-87
2021/11/07 05:49:44;;;;;;;13.87;8.53;;;10.20;99.90;;;;;;5054373;28;20025;-87
2021/11/07 05:52:10;;;;;;;13.07;7.87;;;10.20;99.90;;;;;;5054604;28;20043;-87
2021/11/07 05:54:36;;;;;;;11.00;7.43;;;10.20;99.90;;;;;;5072540;28;20082;-87
2021/11/07 05:57:02;;;;;;;13.00;8.30;;;10.20;99.90;;;;;;5038045;28;20086;-87
2021/11/07 05:59:29;;;;;;;12.70;8.33;;;10.20;99.90;;;;;;5037523;28;20390;-87
2021/11/07 06:01:55;;;;;;;14.43;9.00;;;10.20;99.90;;;;;;5037954;28;20024;-87
2021/11/07 06:04:22;;;;;;;15.13;9.00;;;10.30;99.90;;;;;;5071004;28;20064;-87
2021/11/07 06:06:47;;;;;;;13.77;8.47;;;10.30;99.90;;;;;;5054562;28;20048;-87
2021/11/07 06:09:13;;;;;;;13.17;9.10;;;10.30;99.90;;;;;;5037408;28;20094;-87
2021/11/07 06:11:39;;;;;;;13.57;9.03;;;10.30;99.90;;;;;;5054517;28;20029;-88
2021/11/07 06:14:05;;;;;;;15.27;8.77;;;10.20;99.90;;;;;;5071189;28;20370;-88
2021/11/07 06:16:31;;;;;;;13.37;9.60;;;10.20;99.90;;;;;;5054122;28;20523;-88
2021/11/07 06:18:56;;;;;;;15.17;9.43;;;10.20;99.90;;;;;;5070477;28;20404;-88
2021/11/07 06:21:25;;;;;;;14.90;9.40;;;10.20;99.90;;;;;;5056999;28;20070;-87
2021/11/07 06:23:51;;;;;;;14.32;9.05;;;10.40;99.90;;;;;;5039985;28;20697;-88
2021/11/07 06:26:17;;;;;;;14.43;9.00;;;10.40;99.90;;;;;;5054176;28;20028;-88
2021/11/07 06:28:43;;;;;;;16.67;8.80;;;10.30;99.90;;;;;;5054154;28;20465;-87
2021/11/07 06:31:09;;;;;;;13.00;8.77;;;10.40;99.90;;;;;;5053443;28;20032;-88
2021/11/07 06:33:36;;;;;;;13.77;9.07;;;10.40;99.90;;;;;;5053893;28;20025;-88
2021/11/07 06:36:03;;;;;;;14.40;10.23;;;10.30;99.90;;;;;;5037434;28;20542;-87
2021/11/07 06:38:30;;;;;;;13.27;9.57;;;10.30;99.90;;;;;;5037615;28;20081;-88
2021/11/07 06:40:56;;;;;;;15.07;9.87;;;10.30;99.90;;;;;;5036849;28;20044;-88
2021/11/07 06:43:21;;;;;;;17.23;10.20;;;10.30;99.90;;;;;;5037342;28;20028;-88
2021/11/07 06:45:47;;;;;;;18.27;10.50;;;10.30;99.90;;;;;;5053737;28;20029;-88
2021/11/07 06:48:13;;;;;;;17.33;10.07;;;10.30;99.90;;;;;;5070778;28;20033;-87
2021/11/07 06:50:39;;;;;;;16.67;9.93;;;10.20;99.90;;;;;;5053344;28;20029;-88
2021/11/07 06:53:05;;;;;;;13.77;8.93;;;10.30;99.90;;;;;;5054157;28;20499;-88
2021/11/07 06:55:31;;;;;;;16.80;9.20;;;10.30;99.90;;;;;;5037136;28;20036;-88
2021/11/07 06:57:57;;;;;;;12.23;8.23;;;10.30;99.90;;;;;;5053831;28;20048;-88
2021/11/07 07:00:25;;;;;;;14.17;8.50;;;10.30;99.90;;;;;;5036705;28;20035;-88
2021/11/07 07:02:51;;;;;;;11.27;8.17;;;10.30;99.90;;;;;;5053877;28;20405;-88
2021/11/07 07:05:19;;;;;;;12.40;8.17;;;10.20;99.90;;;;;;5053814;28;20033;-88
2021/11/07 07:07:50;;;;;;;12.47;7.30;;;10.20;99.90;;;;;;5070465;28;20400;-88
2021/11/07 07:10:45;;;;;;;13.33;7.50;;;10.20;99.90;;;;;;5036581;28;20116;-88
2021/11/07 07:13:09;;;;;;;10.90;7.40;;;10.30;99.90;;;;;;5052825;28;20028;-88
2021/11/07 07:15:45;;;;;;;10.63;6.68;;;10.20;99.90;;;;;;5075222;23;20443;-82
2021/11/07 07:20:59;;;;;;;11.13;7.00;;;10.30;99.90;;;;;;5076710;28;20035;-82
2021/11/07 07:26:32;;;;;;;11.30;6.55;;;10.30;99.90;;;;;;5076735;28;20365;-83
2021/11/07 07:29:50;;;;;;;13.00;7.43;;;10.30;99.90;;;;;;5094226;28;20024;-83
2021/11/07 07:34:51;;;;;;;11.97;7.70;;;10.30;99.90;;;;;;5052585;28;20156;-83
2021/11/07 07:37:17;;;;;;;13.73;8.00;;;10.30;99.90;;;;;;5087490;28;20047;-83
2021/11/07 07:39:43;;;;;;;14.00;8.83;;;10.30;99.90;;;;;;5077189;28;20024;-82
2021/11/07 07:42:09;;;;;;;14.60;8.87;;;10.40;99.90;;;;;;5095345;28;20445;-82
2021/11/07 07:44:35;;;;;;;17.70;9.23;;;10.40;99.90;;;;;;5077131;28;20032;-82
2021/11/07 07:47:02;;;;;;;15.73;9.33;;;10.40;99.90;;;;;;5097270;28;20024;-82
2021/11/07 07:49:28;;;;;;;16.30;9.23;;;10.40;99.90;;;;;;5097393;28;20048;-82
2021/11/07 07:51:55;;;;;;;16.47;9.43;;;10.40;99.90;;;;;;5098894;28;20198;-83
2021/11/07 07:54:24;;;;;;;20.03;10.10;;;10.50;99.90;;;;;;5097107;28;20496;-82
2021/11/07 07:56:51;;;;;;;16.05;9.90;;;10.50;99.90;;;;;;5097253;28;20435;-83
2021/11/07 07:59:18;;;;;;;14.27;9.60;;;10.50;99.90;;;;;;5096512;28;20024;-83
2021/11/07 08:01:44;;;;;;;18.73;10.50;;;10.50;99.90;;;;;;5097100;28;20051;-83
2021/11/07 08:04:10;;;;;;;15.50;9.93;;;10.50;99.90;;;;;;5096533;28;20075;-82
2021/11/07 08:06:36;;;;;;;16.60;9.80;;;10.50;99.90;;;;;;5096274;28;20052;-81
2021/11/07 08:09:02;;;;;;;17.23;10.37;;;10.50;99.90;;;;;;5094771;28;20080;-82
2021/11/07 08:11:28;;;;;;;15.90;9.33;;;10.50;99.90;;;;;;5078300;28;20024;-82
2021/11/07 08:13:54;;;;;;;16.47;9.57;;;10.60;99.90;;;;;;5096525;28;20028;-82
2021/11/07 08:16:22;;;;;;;16.97;9.37;;;10.60;99.90;;;;;;5094605;28;20035;-82
2021/11/07 08:18:49;;;;;;;15.57;8.50;;;10.60;99.90;;;;;;5096166;28;20040;-81
2021/11/07 08:21:17;;;;;;;15.10;9.50;;;10.60;99.90;;;;;;5077485;28;20032;-82
2021/11/07 08:23:43;;;;;;;14.03;8.53;;;10.70;99.90;;;;;;5096573;28;20036;-82
2021/11/07 08:26:09;;;;;;;17.47;8.70;;;10.70;99.90;;;;;;5078068;28;20032;-82
2021/11/07 08:28:35;;;;;;;18.37;8.37;;;10.70;99.90;;;;;;5094955;28;20028;-83
2021/11/07 08:31:13;;;;;;;18.07;7.80;;;10.70;99.90;;;;;;5096019;28;20050;-83
2021/11/07 08:33:39;;;;;;;17.93;7.97;;;10.60;99.90;;;;;;5094988;28;20028;-82
2021/11/07 08:36:11;;;;;;;20.00;8.73;;;10.60;99.90;;;;;;5095342;28;20036;-82
2021/11/07 08:38:50;;;;;;;14.37;6.43;;;10.80;99.90;;;;;;5096307;28;20043;-83
2021/11/07 08:41:18;;;;;;;23.40;7.20;;;10.80;99.90;;;;;;5077693;28;20028;-83
2021/11/07 09:00:18;;;;;;;15.17;6.60;;;10.80;99.90;;;;;;5093544;28;20500;-83
2021/11/07 09:05:24;;;;;;;21.33;7.30;;;10.80;99.90;;;;;;5095775;28;20469;-83
2021/11/07 09:08:12;;;;;;;18.63;7.73;;;10.80;99.90;;;;;;5096212;28;20020;-83
2021/11/07 09:10:38;;;;;;;19.33;7.43;;;10.80;99.90;;;;;;5078865;28;20024;-83
2021/11/07 09:13:07;;;;;;;17.33;6.43;;;10.90;99.90;;;;;;5076959;28;20024;-83
2021/11/07 09:15:36;;;;;;;20.45;6.40;;;10.90;99.90;;;;;;5094345;28;20071;-84
2021/11/07 09:18:04;;;;;;;15.10;5.20;;;11.00;99.90;;;;;;5092887;28;20042;-83
2021/11/07 09:23:06;;;;;;;17.37;5.70;;;11.10;99.90;;;;;;5093741;28;20514;-83
2021/11/07 09:25:42;;;;;;;23.10;6.07;;;11.20;99.90;;;;;;5092720;28;20040;-82
2021/11/07 09:28:14;;;;;;;21.03;5.57;;;11.20;99.90;;;;;;5093735;28;20111;-82
2021/11/07 09:33:24;;;;;;;18.70;4.10;;;11.30;99.90;;;;;;5092035;28;20032;-82
2021/11/07 09:36:07;;;;;;;16.27;4.83;;;11.20;99.90;;;;;;5093329;28;20028;-83
2021/11/07 09:38:45;;;;;;;17.30;3.93;;;11.20;99.90;;;;;;5093446;28;20103;-83
2021/11/07 09:48:39;;;;;;;75.23;22.37;;;11.20;99.90;;;;;;5096666;28;20028;-83
2021/11/07 09:51:15;;;;;;;17.03;3.70;;;11.20;99.90;;;;;;5095025;28;20031;-83
2021/11/07 09:53:44;;;;;;;15.53;3.47;;;11.20;99.90;;;;;;5096243;28;20096;-83
2021/11/07 09:56:11;;;;;;;16.88;3.65;;;11.20;99.90;;;;;;5078937;28;20480;-83
2021/11/07 09:58:41;;;;;;;28.80;3.90;;;11.20;99.90;;;;;;5097430;28;20040;-83
2021/11/07 10:01:07;;;;;;;19.50;3.67;;;11.20;99.90;;;;;;5096419;28;20054;-82
2021/11/07 10:03:34;;;;;;;13.63;3.20;;;11.30;99.90;;;;;;5096771;28;20036;-83
2021/11/07 10:06:02;;;;;;;22.30;5.63;;;11.30;99.90;;;;;;5077801;28;20059;-84
2021/11/07 10:08:30;;;;;;;22.77;6.50;;;11.40;99.90;;;;;;5095649;28;20034;-84
2021/11/07 10:11:04;;;;;;;19.57;4.20;;;11.50;99.90;;;;;;5096126;28;20057;-83
2021/11/07 10:13:32;;;;;;;16.23;3.37;;;11.50;99.90;;;;;;5097069;28;20327;-83
2021/11/07 10:16:12;;;;;;;16.53;3.40;;;11.50;99.90;;;;;;5095080;28;20039;-85
2021/11/07 10:18:49;;;;;;;20.50;3.20;;;11.60;99.90;;;;;;5095459;28;20226;-83
2021/11/07 10:21:26;;;;;;;22.03;3.90;;;11.60;99.90;;;;;;5077117;28;20084;-82
2021/11/07 10:24:08;;;;;;;23.73;3.23;;;11.60;99.90;;;;;;5095466;28;20036;-83
2021/11/07 10:26:36;;;;;;;18.30;3.20;;;11.60;99.90;;;;;;5093444;28;20126;-82
2021/11/07 10:29:04;;;;;;;19.00;3.30;;;11.50;99.90;;;;;;5090739;28;20054;-82
2021/11/07 10:53:26;;;;;;;16.53;2.63;;;11.40;99.90;;;;;;5092917;28;20032;-83
2021/11/07 10:56:01;;;;;;;16.67;2.75;;;11.40;99.90;;;;;;5075004;28;20449;-83
2021/11/07 10:58:32;;;;;;;17.60;2.67;;;11.40;99.90;;;;;;5091611;28;20035;-82
2021/11/07 11:01:01;;;;;;;21.53;3.07;;;11.30;99.90;;;;;;5091530;28;20404;-83
2021/11/07 11:03:27;;;;;;;;;;;11.30;99.90;;;;;;5093173;28;20038;-83
2021/11/07 11:06:07;;;;;;;15.03;2.63;;;11.30;99.90;;;;;;5091186;28;19911;-83
2021/11/07 11:08:42;;;;;;;14.17;2.87;;;11.30;99.90;;;;;;5074391;28;20178;-83
2021/11/07 11:13:54;;;;;;;15.43;3.00;;;11.30;99.90;;;;;;5092852;28;20024;-83
2021/11/07 11:16:43;;;;;;;18.60;2.60;;;11.30;99.90;;;;;;5091299;28;20184;-83
2021/11/07 11:43:20;;;;;;;20.47;3.83;;;11.50;99.90;;;;;;5095549;28;20043;-83
2021/11/07 11:45:46;;;;;;;17.47;2.97;;;11.50;99.90;;;;;;5096861;28;20484;-83
2021/11/07 12:00:23;;;;;;;20.50;2.87;;;11.60;99.90;;;;;;5095197;28;20085;-83
2021/11/07 12:03:04;;;;;;;15.20;3.10;;;11.60;99.90;;;;;;5078695;28;20401;-83
2021/11/07 12:05:43;;;;;;;16.57;4.07;;;11.60;99.90;;;;;;5097229;28;20488;-84
2021/11/07 12:08:12;;;;;;;17.70;4.73;;;11.50;99.90;;;;;;5096839;28;20028;-83
2021/11/07 12:11:04;;;;;;;17.85;3.80;;;11.50;99.90;;;;;;5095476;28;20020;-84
2021/11/07 12:13:47;;;;;;;14.40;2.90;;;11.50;99.90;;;;;;5096111;28;20500;-83
2021/11/07 12:16:27;;;;;;;17.43;2.80;;;11.50;99.90;;;;;;5095331;28;20036;-83
2021/11/07 12:19:04;;;;;;;13.20;2.53;;;11.50;99.90;;;;;;5095071;28;20030;-83
2021/11/07 12:21:50;;;;;;;14.63;2.57;;;11.50;99.90;;;;;;5096581;28;20040;-83
2021/11/07 12:24:19;;;;;;;14.43;2.87;;;11.50;99.90;;;;;;5095450;28;20434;-83
2021/11/07 12:26:45;;;;;;;13.02;3.67;;;11.60;99.90;;;;;;5095994;28;20056;-82
2021/11/07 12:29:12;;;;;;;23.80;2.93;;;11.60;99.90;;;;;;5094917;28;20031;-83
2021/11/07 12:32:00;;;;;;;16.00;3.23;;;11.50;99.90;;;;;;5096092;28;20024;-83
2021/11/07 12:35:10;;;;;;;17.77;2.90;;;11.50;99.90;;;;;;5096391;28;20049;-83
2021/11/07 12:41:02;;;;;;;12.30;2.87;;;11.50;99.90;;;;;;5094062;28;20046;-82
2021/11/07 12:43:34;;;;;;;20.67;3.43;;;11.40;99.90;;;;;;5091702;28;20044;-83
2021/11/07 12:49:16;;;;;;;15.20;2.90;;;11.50;99.90;;;;;;5074334;28;20082;-82
2021/11/07 12:51:58;;;;;;;20.07;2.97;;;11.50;99.90;;;;;;5077184;28;20460;-82
2021/11/07 12:54:24;;;;;;;19.40;3.53;;;11.50;99.90;;;;;;5094891;28;20028;-83
2021/11/07 12:57:00;;;;;;;20.23;3.40;;;11.50;99.90;;;;;;5094948;28;20035;-83
2021/11/07 12:59:37;;;;;;;14.03;2.40;;;11.50;99.90;;;;;;5077272;28;20384;-83
2021/11/07 13:02:06;;;;;;;12.33;2.70;;;11.50;99.90;;;;;;5095432;28;20388;-82
2021/11/07 13:04:44;;;;;;;18.45;2.85;;;11.60;99.90;;;;;;5095463;28;20024;-83
2021/11/07 13:07:28;;;;;;;12.50;2.40;;;11.70;99.90;;;;;;5095361;28;20085;-83
2021/11/07 13:09:58;;;;;;;16.60;3.07;;;11.70;99.90;;;;;;5094912;28;20541;-82
2021/11/07 13:12:38;;;;;;;14.03;2.73;;;11.80;99.90;;;;;;5094652;28;20275;-82
2021/11/07 13:21:06;;;;;;;17.40;3.43;;;12.00;99.90;;;;;;5015671;28;20118;-88
2021/11/07 13:26:28;;;;;;;13.98;3.17;;;12.00;99.90;;;;;;5020876;28;20064;-87
2021/11/07 13:31:59;;;;;;;13.23;2.60;;;12.00;99.90;;;;;;5001950;28;20041;-87
2021/11/07 13:34:25;;;;;;;14.23;2.73;;;12.00;99.90;;;;;;5015813;28;20034;-88
2021/11/07 13:36:52;;;;;;;10.43;2.17;;;12.00;99.90;;;;;;5033064;28;20026;-87
2021/11/07 13:39:24;;;;;;;20.10;2.70;;;12.00;99.90;;;;;;5015060;28;20034;-88
2021/11/07 13:41:58;;;;;;;16.77;2.57;;;12.00;99.90;;;;;;5015534;28;20508;-87
2021/11/07 13:44:27;;;;;;;19.80;3.10;;;12.00;99.90;;;;;;5031267;28;20073;-88
2021/11/07 13:46:55;;;;;;;;;;;11.90;99.90;;;;;;5015664;28;20060;-90
2021/11/07 13:49:22;;;;;;;11.43;2.37;;;11.90;99.90;;;;;;5047904;28;19913;-89
2021/11/07 13:51:55;;;;;;;16.70;2.90;;;11.90;99.90;;;;;;5031645;28;20056;-87
2021/11/07 13:54:22;;;;;;;15.67;2.57;;;11.90;99.90;;;;;;5015211;28;20030;-87
2021/11/07 13:56:49;;;;;;;17.10;2.47;;;12.00;99.90;;;;;;5015047;28;20037;-88
2021/11/07 13:59:48;;;;;;;15.23;2.60;;;12.00;99.90;;;;;;5014487;28;20033;-87
2021/11/07 14:02:17;;;;;;;14.13;2.13;;;12.00;99.90;;;;;;4966544;28;20045;-89
2021/11/07 14:04:47;;;;;;;16.93;3.03;;;12.10;99.90;;;;;;5031270;28;20037;-87
2021/11/07 14:07:18;;;;;;;11.73;2.20;;;12.10;99.90;;;;;;5014886;28;20026;-88
2021/11/07 14:10:09;;;;;;;14.93;2.50;;;12.10;99.90;;;;;;5030943;28;20029;-87
2021/11/07 14:12:53;;;;;;;14.80;2.77;;;12.10;99.90;;;;;;5014844;28;20036;-87
2021/11/07 14:15:30;;;;;;;13.67;2.47;;;12.00;99.90;;;;;;5014632;28;20477;-87
2021/11/07 14:18:16;;;;;;;18.57;2.77;;;11.90;99.90;;;;;;5015044;28;20478;-87
2021/11/07 14:20:48;;;;;;;11.37;2.23;;;11.80;99.90;;;;;;5030783;28;20124;-87
2021/11/07 14:23:44;;;;;;;18.53;3.50;;;11.80;99.90;;;;;;5014734;28;20029;-87
2021/11/07 14:26:26;;;;;;;13.03;2.50;;;11.80;99.90;;;;;;5014559;28;20033;-87
2021/11/07 14:28:53;;;;;;;14.00;3.00;;;11.80;99.90;;;;;;5030879;28;20035;-87
2021/11/07 14:31:26;;;;;;;14.43;2.80;;;11.70;99.90;;;;;;5014726;28;20653;-88
2021/11/07 14:34:11;;;;;;;14.77;2.83;;;11.80;99.90;;;;;;5031164;28;20061;-88
2021/11/07 14:36:48;;;;;;;16.47;3.37;;;11.80;99.90;;;;;;5014621;28;20080;-87
2021/11/07 14:42:23;;;;;;;17.17;3.60;;;11.80;99.90;;;;;;5031075;28;20040;-87
2021/11/07 15:02:20;;;;;;;15.60;4.07;;;11.60;99.90;;;;;;5034881;28;20045;-88
2021/11/07 15:04:56;;;;;;;19.40;5.00;;;11.70;99.90;;;;;;5018259;28;20040;-88
2021/11/07 15:07:50;;;;;;;18.27;5.03;;;11.70;99.90;;;;;;5018374;28;20120;-88
2021/11/07 15:24:27;;;;;;;20.57;3.97;;;11.50;99.90;;;;;;4985418;28;20501;-88
2021/11/07 15:26:57;;;;;;;19.83;3.13;;;11.50;99.90;;;;;;5017740;28;20029;-87
2021/11/07 15:29:35;;;;;;;24.03;3.87;;;11.50;99.90;;;;;;5017427;28;20033;-87
2021/11/07 15:32:13;;;;;;;16.27;3.50;;;11.40;99.90;;;;;;5017716;28;20025;-88
2021/11/07 15:34:45;;;;;;;15.70;2.33;;;11.40;99.90;;;;;;5017793;28;20031;-87
2021/11/07 15:37:27;;;;;;;14.43;2.93;;;11.30;99.90;;;;;;5001382;28;20036;-88
2021/11/07 15:39:55;;;;;;;17.57;3.03;;;11.30;99.90;;;;;;5033715;28;20124;-88
2021/11/07 15:42:29;;;;;;;13.47;2.80;;;11.20;99.90;;;;;;5017453;28;20104;-87
2021/11/07 15:45:00;;;;;;;15.00;3.03;;;11.10;99.90;;;;;;5017434;28;20030;-88
2021/11/07 15:47:42;;;;;;;18.07;3.30;;;11.10;99.90;;;;;;5017937;28;20025;-88
2021/11/07 15:50:23;;;;;;;15.33;2.83;;;11.10;99.90;;;;;;5016862;28;20060;-88
2021/11/07 16:11:09;;;;;;;19.58;4.38;;;10.70;99.90;;;;;;5033132;28;20133;-88
2021/11/07 16:18:28;;;;;;;15.30;3.20;;;10.60;99.90;;;;;;5016753;28;20060;-87
2021/11/07 16:20:53;;;;;;;19.03;3.30;;;10.50;99.90;;;;;;5032973;28;20048;-88
2021/11/07 16:23:20;;;;;;;19.20;3.73;;;10.50;99.90;;;;;;5016734;28;20037;-87
2021/11/07 16:25:49;;;;;;;24.57;4.70;;;10.40;99.90;;;;;;5016521;28;20032;-88
2021/11/07 16:28:16;;;;;;;22.35;5.30;;;10.30;99.90;;;;;;5016832;28;20033;-89
2021/11/07 16:30:42;;;;;;;20.30;4.33;;;10.30;99.90;;;;;;5016302;28;20021;-87